Terminal Aerodrome Forecast
Issued by NWS

Home | Current Version | Previous Version | Graphics & Text | Print | Product List | Glossary On
Versions: 1 2 3 4 5 6 7 8 9 10 11 12 13 14 15
208
FTUS43 KBIS 221139
TAFDIK
TAF
KDIK 221139Z 2212/2312 29010KT P6SM VCSH BKN070
     FM221500 36010KT P6SM BKN070
     FM221800 36015G23KT P6SM VCSH BKN045
     FM230200 34010KT P6SM BKN060
     FM230600 33007KT P6SM SCT070=

USA.gov is the U.S. government's official web portal to all federal, state and local government web resources and services.